createdAt,value
2019-03-03T00:02:15.596Z,88.79
2019-03-03T00:04:43.238Z,90.00
2019-03-03T00:07:10.822Z,90.91
2019-03-03T00:09:38.489Z,90.73
2019-03-03T00:12:07.003Z,90.16
2019-03-03T00:14:34.604Z,90.04
2019-03-03T00:17:02.269Z,89.89
2019-03-03T00:19:29.872Z,90.42
2019-03-03T00:21:57.469Z,90.58
2019-03-03T00:24:26.877Z,90.51
2019-03-03T00:26:54.448Z,90.81
2019-03-03T00:29:22.040Z,90.54
2019-03-03T00:31:49.672Z,90.11
2019-03-03T00:34:17.244Z,89.86
2019-03-03T00:37:13.235Z,89.27
2019-03-03T00:40:06.169Z,88.70
2019-03-03T00:42:53.262Z,88.38
2019-03-03T00:45:49.376Z,88.43
2019-03-03T00:48:42.783Z,88.97
2019-03-03T00:51:28.489Z,88.67
2019-03-03T00:54:05.990Z,88.01
2019-03-03T00:56:58.725Z,87.83
2019-03-03T00:59:46.637Z,87.73
2019-03-03T01:02:48.866Z,87.70
2019-03-03T01:05:24.465Z,87.88
2019-03-03T01:08:15.160Z,87.30
2019-03-03T01:11:08.299Z,87.79
2019-03-03T01:14:04.406Z,87.67
2019-03-03T01:16:48.299Z,87.95
2019-03-03T01:19:38.027Z,87.91
2019-03-03T01:22:27.665Z,87.79
2019-03-03T01:24:57.816Z,87.62
2019-03-03T01:27:26.078Z,87.74
2019-03-03T01:29:53.918Z,87.37
2019-03-03T01:32:21.490Z,87.26
2019-03-03T01:34:49.138Z,87.10
2019-03-03T01:37:16.808Z,87.44
2019-03-03T01:39:44.479Z,87.80
2019-03-03T01:42:12.038Z,87.26
2019-03-03T01:44:39.652Z,87.06
2019-03-03T01:47:07.616Z,86.88
2019-03-03T01:49:35.242Z,86.74
2019-03-03T01:52:03.020Z,86.82
2019-03-03T01:54:30.641Z,86.79
2019-03-03T01:56:58.211Z,86.92
2019-03-03T01:59:25.906Z,86.87
2019-03-03T02:01:55.267Z,86.93
2019-03-03T02:04:22.822Z,86.94
2019-03-03T02:06:50.470Z,86.99
2019-03-03T02:09:18.304Z,87.31
2019-03-03T02:11:45.938Z,87.34
2019-03-03T02:14:13.528Z,87.26
2019-03-03T02:16:41.087Z,87.10
2019-03-03T02:19:08.721Z,87.13
2019-03-03T02:21:36.261Z,87.15
2019-03-03T02:24:03.979Z,87.24
2019-03-03T02:26:31.657Z,87.46
2019-03-03T02:28:59.331Z,87.59
2019-03-03T02:31:26.999Z,87.44
2019-03-03T02:33:54.644Z,87.55
2019-03-03T02:36:22.271Z,87.43
2019-03-03T02:38:49.832Z,87.52
2019-03-03T02:41:18.377Z,87.32
2019-03-03T02:43:45.950Z,87.57
2019-03-03T02:46:13.535Z,87.86
2019-03-03T02:48:41.099Z,87.71
2019-03-03T02:51:08.787Z,87.73
2019-03-03T02:53:36.458Z,87.62
2019-03-03T02:56:04.159Z,87.83
2019-03-03T02:58:31.972Z,88.03
2019-03-03T03:01:34.433Z,88.06
2019-03-03T03:04:01.997Z,88.38
2019-03-03T03:06:47.826Z,88.52
2019-03-03T03:09:21.033Z,88.33
2019-03-03T03:11:58.982Z,88.53
2019-03-03T03:14:46.137Z,88.39
2019-03-03T03:17:36.039Z,88.20
2019-03-03T03:20:26.045Z,88.14
2019-03-03T03:23:15.804Z,88.05
2019-03-03T03:26:05.549Z,88.23
2019-03-03T03:28:55.480Z,88.16
2019-03-03T03:31:29.203Z,88.33
2019-03-03T03:34:03.345Z,88.47
2019-03-03T03:36:44.200Z,88.45
2019-03-03T03:39:23.939Z,88.48
2019-03-03T03:42:11.415Z,88.76
2019-03-03T03:45:07.499Z,90.88
2019-03-03T03:47:57.249Z,92.11
2019-03-03T03:50:43.739Z,91.92
2019-03-03T03:53:29.731Z,92.05
2019-03-03T03:56:19.408Z,92.03
2019-03-03T03:59:05.242Z,91.32
2019-03-03T04:01:52.317Z,90.94
2019-03-03T04:04:33.206Z,90.63
2019-03-03T04:07:23.879Z,90.36
2019-03-03T04:10:11.011Z,90.39
2019-03-03T04:12:54.480Z,90.36
2019-03-03T04:15:41.624Z,90.31
2019-03-03T04:18:22.676Z,89.96
2019-03-03T04:21:08.562Z,90.24
2019-03-03T04:23:58.456Z,90.10
2019-03-03T04:26:48.346Z,90.33
2019-03-03T04:29:44.329Z,90.55
2019-03-03T04:32:31.459Z,90.61
2019-03-03T04:35:24.492Z,91.14
2019-03-03T04:38:10.463Z,92.04
2019-03-03T04:41:01.156Z,92.57
2019-03-03T04:43:40.574Z,92.11
2019-03-03T04:46:30.349Z,91.59
2019-03-03T04:49:20.437Z,90.67
2019-03-03T04:52:16.684Z,90.30
2019-03-03T04:55:12.509Z,90.36
2019-03-03T04:57:47.169Z,90.52
2019-03-03T05:00:34.390Z,90.75
2019-03-03T05:03:20.078Z,91.51
2019-03-03T05:06:15.956Z,91.07
2019-03-03T05:09:12.259Z,90.60
2019-03-03T05:12:39.783Z,90.95
2019-03-03T05:15:33.231Z,91.26
2019-03-03T05:18:07.427Z,90.41
2019-03-03T05:20:46.624Z,90.03
2019-03-03T05:23:17.048Z,89.76
2019-03-03T05:25:44.717Z,89.67
2019-03-03T05:28:12.239Z,89.27
2019-03-03T05:30:39.865Z,89.29
2019-03-03T05:33:07.408Z,89.19
2019-03-03T05:35:35.065Z,89.36
2019-03-03T05:38:02.582Z,89.66
2019-03-03T05:40:30.163Z,89.73
2019-03-03T05:42:57.747Z,89.69
2019-03-03T05:45:25.351Z,89.66
2019-03-03T05:47:52.898Z,89.56
2019-03-03T05:50:20.516Z,89.78
2019-03-03T05:52:48.066Z,90.08
2019-03-03T05:55:15.703Z,90.47
2019-03-03T05:57:43.279Z,90.39
2019-03-03T06:00:12.296Z,90.67
2019-03-03T06:02:39.864Z,90.84
2019-03-03T06:05:07.822Z,90.98
2019-03-03T06:07:35.334Z,90.92
2019-03-03T06:10:03.728Z,91.25
2019-03-03T06:12:31.297Z,91.23
2019-03-03T06:14:58.980Z,91.05
2019-03-03T06:17:26.518Z,90.84
2019-03-03T06:19:54.116Z,90.61
2019-03-03T06:22:21.741Z,90.80
2019-03-03T06:24:49.673Z,90.71
2019-03-03T06:27:19.063Z,90.57
2019-03-03T06:29:46.768Z,90.67
2019-03-03T06:32:14.382Z,91.10
2019-03-03T06:34:42.071Z,91.27
2019-03-03T06:37:09.780Z,91.42
2019-03-03T06:39:37.448Z,91.77
2019-03-03T06:42:05.087Z,91.45
2019-03-03T06:44:32.759Z,91.31
2019-03-03T06:47:00.470Z,91.18
2019-03-03T06:49:28.102Z,90.97
2019-03-03T06:51:58.764Z,90.69
2019-03-03T06:54:26.482Z,90.13
2019-03-03T06:56:54.112Z,89.46
2019-03-03T06:59:23.185Z,89.09
2019-03-03T07:01:50.722Z,88.93
2019-03-03T07:04:18.399Z,88.39
2019-03-03T07:06:45.928Z,87.96
2019-03-03T07:09:13.499Z,87.49
2019-03-03T07:11:41.031Z,87.44
2019-03-03T07:14:08.626Z,87.43
2019-03-03T07:16:36.178Z,86.53
2019-03-03T07:19:03.841Z,85.43
2019-03-03T07:21:31.414Z,84.91
2019-03-03T07:23:59.095Z,83.77
2019-03-03T07:26:26.795Z,82.28
2019-03-03T07:28:54.472Z,81.06
2019-03-03T07:31:22.207Z,79.81
2019-03-03T07:33:53.447Z,79.75
2019-03-03T07:36:22.884Z,78.84
2019-03-03T07:38:50.606Z,77.01
2019-03-03T07:41:18.422Z,76.10
2019-03-03T07:43:46.148Z,74.84
2019-03-03T07:46:13.818Z,72.77
2019-03-03T07:48:41.383Z,72.22
2019-03-03T07:51:09.224Z,71.29
2019-03-03T07:53:36.878Z,71.20
2019-03-03T07:56:04.556Z,71.12
2019-03-03T07:58:32.142Z,69.71
2019-03-03T08:00:59.825Z,69.45
2019-03-03T08:03:27.408Z,68.89
2019-03-03T08:05:55.128Z,68.84
2019-03-03T08:08:22.682Z,68.64
2019-03-03T08:10:50.408Z,67.88
2019-03-03T08:13:18.994Z,67.99
2019-03-03T08:15:46.743Z,67.65
2019-03-03T08:18:15.281Z,67.50
2019-03-03T08:20:42.971Z,67.12
2019-03-03T08:23:10.549Z,65.90
2019-03-03T08:25:39.202Z,65.55
2019-03-03T08:28:06.766Z,64.99
2019-03-03T08:30:34.493Z,63.94
2019-03-03T08:33:02.102Z,63.11
2019-03-03T08:35:29.755Z,63.38
2019-03-03T08:37:57.589Z,63.09
2019-03-03T08:40:25.271Z,63.08
2019-03-03T08:43:04.246Z,63.47
2019-03-03T08:45:49.990Z,63.20
2019-03-03T08:48:35.755Z,62.08
2019-03-03T08:51:15.245Z,62.92
2019-03-03T08:54:05.434Z,61.54
2019-03-03T08:56:45.435Z,60.83
2019-03-03T08:59:38.365Z,60.72
2019-03-03T09:02:23.810Z,60.71
2019-03-03T09:05:14.659Z,60.14
2019-03-03T09:08:20.133Z,59.96
2019-03-03T09:10:57.568Z,58.91
2019-03-03T09:13:37.435Z,58.31
2019-03-03T09:16:27.905Z,56.94
2019-03-03T09:19:24.136Z,57.77
2019-03-03T09:22:13.946Z,59.18
2019-03-03T09:24:57.290Z,58.04
2019-03-03T09:27:47.597Z,58.23
2019-03-03T09:30:33.479Z,56.78
2019-03-03T09:33:20.755Z,56.42
2019-03-03T09:36:08.213Z,56.28
2019-03-03T09:38:54.256Z,54.37
2019-03-03T09:41:50.677Z,55.26
2019-03-03T09:44:37.892Z,54.01
2019-03-03T09:47:19.836Z,54.39
2019-03-03T09:50:05.592Z,54.79
2019-03-03T09:52:40.466Z,53.60
2019-03-03T09:55:26.254Z,53.04
2019-03-03T09:58:07.255Z,52.31
2019-03-03T10:00:57.264Z,51.98
2019-03-03T10:03:32.063Z,49.10
2019-03-03T10:06:34.614Z,47.22
2019-03-03T10:09:40.037Z,48.30
2019-03-03T10:12:30.181Z,45.24
2019-03-03T10:15:12.755Z,45.66
2019-03-03T10:17:55.129Z,45.82
2019-03-03T10:20:48.230Z,44.09
2019-03-03T10:23:34.372Z,44.67
2019-03-03T10:26:24.987Z,44.57
2019-03-03T10:29:12.174Z,45.08
2019-03-03T10:31:57.760Z,44.90
2019-03-03T10:34:44.945Z,46.49
2019-03-03T10:37:35.079Z,45.60
2019-03-03T10:40:20.823Z,44.82
2019-03-03T10:42:59.973Z,45.06
2019-03-03T10:45:47.094Z,44.55
2019-03-03T10:48:43.343Z,45.51
2019-03-03T10:51:22.046Z,45.57
2019-03-03T10:54:07.602Z,45.40
2019-03-03T10:56:56.415Z,46.99
2019-03-03T10:59:43.610Z,45.06
2019-03-03T11:02:39.406Z,44.72
2019-03-03T11:05:23.978Z,45.93
2019-03-03T11:08:20.156Z,42.80
2019-03-03T11:11:25.445Z,43.79
2019-03-03T11:14:22.421Z,43.06
2019-03-03T11:17:08.010Z,42.53
2019-03-03T11:19:50.866Z,43.10
2019-03-03T11:22:40.764Z,42.54
2019-03-03T11:25:28.031Z,43.04
2019-03-03T11:28:12.039Z,42.44
2019-03-03T11:30:45.763Z,41.83
2019-03-03T11:33:33.241Z,42.01
2019-03-03T11:36:18.661Z,42.58
2019-03-03T11:38:54.864Z,42.83
2019-03-03T11:41:29.900Z,42.46
2019-03-03T11:44:15.934Z,41.99
2019-03-03T11:47:01.694Z,42.99
2019-03-03T11:49:47.745Z,43.06
2019-03-03T11:52:36.292Z,43.27
2019-03-03T11:55:29.890Z,41.72
2019-03-03T11:58:22.917Z,41.97
2019-03-03T12:01:13.088Z,41.54
2019-03-03T12:04:12.220Z,40.78
2019-03-03T12:07:08.818Z,40.45
2019-03-03T12:09:52.332Z,39.79
2019-03-03T12:12:42.362Z,39.35
2019-03-03T12:15:15.944Z,39.49
2019-03-03T12:18:03.193Z,39.86
2019-03-03T12:20:50.393Z,39.00
2019-03-03T12:23:36.219Z,38.65
2019-03-03T12:26:23.431Z,38.52
2019-03-03T12:29:19.255Z,38.33
2019-03-03T12:31:57.592Z,37.91
2019-03-03T12:34:40.967Z,37.18
2019-03-03T12:37:31.166Z,37.67
2019-03-03T12:40:16.792Z,37.88
2019-03-03T12:43:02.610Z,37.32
2019-03-03T12:45:48.273Z,37.73
2019-03-03T12:48:35.600Z,37.62
2019-03-03T12:51:23.021Z,37.59
2019-03-03T12:54:21.987Z,36.57
2019-03-03T12:57:01.353Z,35.16
2019-03-03T12:59:46.674Z,36.07
2019-03-03T13:02:25.452Z,36.56
2019-03-03T13:05:18.440Z,35.01
2019-03-03T13:07:52.329Z,34.70
2019-03-03T13:10:44.216Z,34.96
2019-03-03T13:13:19.240Z,36.16
2019-03-03T13:16:02.576Z,37.33
2019-03-03T13:19:02.055Z,35.80
2019-03-03T13:21:57.070Z,34.76
2019-03-03T13:24:50.566Z,36.39
2019-03-03T13:27:37.832Z,33.74
2019-03-03T13:30:31.275Z,33.12
2019-03-03T13:33:18.660Z,33.12
2019-03-03T13:36:06.290Z,34.02
2019-03-03T13:39:03.077Z,32.46
2019-03-03T13:41:57.981Z,33.47
2019-03-03T13:44:25.925Z,32.66
2019-03-03T13:46:54.505Z,32.73
2019-03-03T13:49:42.546Z,33.67
2019-03-03T13:52:38.940Z,33.13
2019-03-03T13:55:09.601Z,33.85
2019-03-03T13:57:37.350Z,33.85
2019-03-03T14:00:07.469Z,34.32
2019-03-03T14:02:35.123Z,32.62
2019-03-03T14:05:03.023Z,33.38
2019-03-03T14:07:32.118Z,31.78
2019-03-03T14:09:59.858Z,31.78
2019-03-03T14:12:27.634Z,31.91
2019-03-03T14:14:55.323Z,31.91
2019-03-03T14:17:23.080Z,33.56
2019-03-03T14:19:50.864Z,33.12
2019-03-03T14:22:18.581Z,32.89
2019-03-03T14:24:46.291Z,32.63
2019-03-03T14:27:17.820Z,33.34
2019-03-03T14:29:45.693Z,31.73
2019-03-03T14:32:13.501Z,31.61
2019-03-03T14:34:41.309Z,31.41
2019-03-03T14:37:09.555Z,31.97
2019-03-03T14:39:39.387Z,32.20
2019-03-03T14:42:06.995Z,32.13
2019-03-03T14:44:34.876Z,32.80
2019-03-03T14:47:02.648Z,33.81
2019-03-03T14:49:30.485Z,32.40
2019-03-03T14:51:58.208Z,32.65
2019-03-03T14:54:25.912Z,32.64
2019-03-03T14:56:56.075Z,33.95
2019-03-03T14:59:23.844Z,33.70
2019-03-03T15:01:51.529Z,34.00
2019-03-03T15:04:19.290Z,34.02
2019-03-03T15:06:46.983Z,34.58
2019-03-03T15:09:20.317Z,34.49
2019-03-03T15:11:48.057Z,35.47
2019-03-03T15:14:15.821Z,35.42
2019-03-03T15:16:43.374Z,36.12
2019-03-03T15:19:12.190Z,35.92
2019-03-03T15:21:42.694Z,35.90
2019-03-03T15:24:11.512Z,36.26
2019-03-03T15:26:39.216Z,36.65
2019-03-03T15:29:06.970Z,37.74
2019-03-03T15:31:37.643Z,36.87
2019-03-03T15:34:04.338Z,36.72
2019-03-03T15:36:32.108Z,36.76
2019-03-03T15:38:59.813Z,37.05
2019-03-03T15:41:27.539Z,37.81
2019-03-03T15:43:55.097Z,38.35
2019-03-03T15:46:22.778Z,38.47
2019-03-03T15:48:53.310Z,38.36
2019-03-03T15:51:21.065Z,37.94
2019-03-03T15:53:48.721Z,40.24
2019-03-03T15:56:16.419Z,40.83
2019-03-03T15:58:44.210Z,42.10
2019-03-03T16:01:14.462Z,43.31
2019-03-03T16:03:42.169Z,45.19
2019-03-03T16:06:09.836Z,44.29
2019-03-03T16:08:37.554Z,43.05
2019-03-03T16:11:05.121Z,41.43
2019-03-03T16:13:32.785Z,43.68
2019-03-03T16:16:00.348Z,43.44
2019-03-03T16:18:28.069Z,46.56
2019-03-03T16:20:55.611Z,46.23
2019-03-03T16:23:23.234Z,44.41
2019-03-03T16:25:50.824Z,46.70
2019-03-03T16:28:18.758Z,45.44
2019-03-03T16:30:46.331Z,48.60
2019-03-03T16:33:20.413Z,47.58
2019-03-03T16:35:46.555Z,47.32
2019-03-03T16:38:14.225Z,49.50
2019-03-03T16:40:41.768Z,49.23
2019-03-03T16:43:09.423Z,47.16
2019-03-03T16:45:36.995Z,49.35
2019-03-03T16:48:04.648Z,52.05
2019-03-03T16:50:34.502Z,51.17
2019-03-03T16:53:02.195Z,49.04
2019-03-03T16:55:29.802Z,50.06
2019-03-03T16:57:57.420Z,51.89
2019-03-03T17:00:25.140Z,51.70
2019-03-03T17:02:52.796Z,53.33
2019-03-03T17:05:20.675Z,54.98
2019-03-03T17:07:48.309Z,53.95
2019-03-03T17:10:15.857Z,54.96
2019-03-03T17:12:43.658Z,50.39
2019-03-03T17:15:13.888Z,47.89
2019-03-03T17:17:41.641Z,48.76
2019-03-03T17:20:09.500Z,49.13
2019-03-03T17:22:37.235Z,50.06
2019-03-03T17:25:08.095Z,50.50
2019-03-03T17:27:35.903Z,51.26
2019-03-03T17:30:04.779Z,51.95
2019-03-03T17:32:32.537Z,52.77
2019-03-03T17:35:00.313Z,52.55
2019-03-03T17:37:28.227Z,53.30
2019-03-03T17:39:56.012Z,56.05
2019-03-03T17:42:24.144Z,57.03
2019-03-03T17:44:51.935Z,55.98
2019-03-03T17:47:19.721Z,57.17
2019-03-03T17:49:47.457Z,58.51
2019-03-03T17:52:15.204Z,57.23
2019-03-03T17:54:42.861Z,59.22
2019-03-03T17:57:10.483Z,54.67
2019-03-03T17:59:38.190Z,60.64
2019-03-03T18:02:05.962Z,59.37
2019-03-03T18:04:35.431Z,60.22
2019-03-03T18:07:03.092Z,60.57
2019-03-03T18:09:30.788Z,55.14
2019-03-03T18:11:59.719Z,55.24
2019-03-03T18:14:27.446Z,55.18
2019-03-03T18:16:55.079Z,55.22
2019-03-03T18:19:22.827Z,56.08
2019-03-03T18:21:50.510Z,56.59
2019-03-03T18:24:18.161Z,56.68
2019-03-03T18:26:45.796Z,57.81
2019-03-03T18:29:13.520Z,57.98
2019-03-03T18:31:41.231Z,57.87
2019-03-03T18:34:08.986Z,57.26
2019-03-03T18:36:36.683Z,58.69
2019-03-03T18:39:06.727Z,58.33
2019-03-03T18:41:36.266Z,57.99
2019-03-03T18:44:04.014Z,58.72
2019-03-03T18:46:31.745Z,58.92
2019-03-03T18:48:59.443Z,59.44
2019-03-03T18:51:27.064Z,59.51
2019-03-03T18:53:54.739Z,59.52
2019-03-03T18:56:22.775Z,60.14
2019-03-03T18:58:50.501Z,60.44
2019-03-03T19:01:18.237Z,60.82
2019-03-03T19:03:46.027Z,60.81
2019-03-03T19:06:13.722Z,61.38
2019-03-03T19:08:41.414Z,61.22
2019-03-03T19:11:09.081Z,61.94
2019-03-03T19:13:36.645Z,61.32
2019-03-03T19:16:04.406Z,62.14
2019-03-03T19:18:31.977Z,61.84
2019-03-03T19:20:59.634Z,61.78
2019-03-03T19:23:27.161Z,62.06
2019-03-03T19:25:54.781Z,62.51
2019-03-03T19:28:22.360Z,62.54
2019-03-03T19:30:49.983Z,62.42
2019-03-03T19:33:21.513Z,62.87
2019-03-03T19:35:49.188Z,63.13
2019-03-03T19:38:17.953Z,63.26
2019-03-03T19:40:45.570Z,63.29
2019-03-03T19:43:13.281Z,63.70
2019-03-03T19:45:40.847Z,63.78
2019-03-03T19:48:08.906Z,64.12
2019-03-03T19:50:36.487Z,64.50
2019-03-03T19:53:06.122Z,64.54
2019-03-03T19:55:33.747Z,64.57
2019-03-03T19:58:01.491Z,64.35
2019-03-03T20:00:35.418Z,64.47
2019-03-03T20:03:02.164Z,64.54
2019-03-03T20:05:29.896Z,64.97
2019-03-03T20:07:57.654Z,64.87
2019-03-03T20:10:25.435Z,64.46
2019-03-03T20:12:56.082Z,65.08
2019-03-03T20:15:23.842Z,65.10
2019-03-03T20:17:51.556Z,65.21
2019-03-03T20:20:19.375Z,65.17
2019-03-03T20:22:46.972Z,65.23
2019-03-03T20:25:14.741Z,66.30
2019-03-03T20:27:42.569Z,65.84
2019-03-03T20:30:12.819Z,65.81
2019-03-03T20:32:40.465Z,65.64
2019-03-03T20:35:08.795Z,65.61
2019-03-03T20:37:36.577Z,65.67
2019-03-03T20:40:05.700Z,66.31
2019-03-03T20:42:33.418Z,66.63
2019-03-03T20:45:01.058Z,66.90
2019-03-03T20:47:28.772Z,66.60
2019-03-03T20:49:56.446Z,66.37
2019-03-03T20:52:24.153Z,66.78
2019-03-03T20:54:51.773Z,67.12
2019-03-03T20:57:19.546Z,67.07
2019-03-03T20:59:47.097Z,66.93
2019-03-03T21:02:14.832Z,67.48
2019-03-03T21:04:42.603Z,67.41
2019-03-03T21:07:10.307Z,67.77
2019-03-03T21:09:37.942Z,68.12
2019-03-03T21:12:05.583Z,68.48
2019-03-03T21:14:33.241Z,68.42
2019-03-03T21:17:00.942Z,68.27
2019-03-03T21:19:28.676Z,68.77
2019-03-03T21:21:56.450Z,68.67
2019-03-03T21:24:24.325Z,68.46
2019-03-03T21:26:51.945Z,68.82
2019-03-03T21:29:20.001Z,69.05
2019-03-03T21:31:50.145Z,69.10
2019-03-03T21:34:17.802Z,69.29
2019-03-03T21:36:45.583Z,69.87
2019-03-03T21:39:13.478Z,69.61
2019-03-03T21:41:41.394Z,69.62
2019-03-03T21:44:09.095Z,69.92
2019-03-03T21:46:36.600Z,70.03
2019-03-03T21:49:04.174Z,69.87
2019-03-03T21:51:31.843Z,70.31
2019-03-03T21:53:59.504Z,70.25
2019-03-03T21:56:28.599Z,70.38
2019-03-03T21:58:56.278Z,70.80
2019-03-03T22:01:23.980Z,70.44
2019-03-03T22:03:51.576Z,71.01
2019-03-03T22:06:19.262Z,70.83
2019-03-03T22:08:46.910Z,70.60
2019-03-03T22:11:14.546Z,70.41
2019-03-03T22:13:42.226Z,70.72
2019-03-03T22:16:09.889Z,70.27
2019-03-03T22:18:37.555Z,70.90
2019-03-03T22:21:06.148Z,71.11
2019-03-03T22:23:33.828Z,70.88
2019-03-03T22:26:01.398Z,70.75
2019-03-03T22:28:29.029Z,70.63
2019-03-03T22:30:56.581Z,70.72
2019-03-03T22:33:24.186Z,70.83
2019-03-03T22:35:51.785Z,70.78
2019-03-03T22:38:21.205Z,71.18
2019-03-03T22:40:48.883Z,71.56
2019-03-03T22:43:16.461Z,71.95
2019-03-03T22:45:44.038Z,72.79
2019-03-03T22:48:11.662Z,72.40
2019-03-03T22:50:39.199Z,71.91
2019-03-03T22:53:06.811Z,71.69
2019-03-03T22:55:35.819Z,71.42
2019-03-03T22:58:03.385Z,71.76
2019-03-03T23:01:00.596Z,71.64
2019-03-03T23:03:35.121Z,71.95
2019-03-03T23:06:10.666Z,72.47
2019-03-03T23:08:49.576Z,72.68
2019-03-03T23:12:04.989Z,72.54
2019-03-03T23:14:58.644Z,72.15
2019-03-03T23:17:58.909Z,71.55
2019-03-03T23:21:01.861Z,71.51
2019-03-03T23:24:23.318Z,70.91
2019-03-03T23:26:50.877Z,71.29
2019-03-03T23:29:18.441Z,71.87
2019-03-03T23:31:46.067Z,70.95
2019-03-03T23:34:13.758Z,71.15
2019-03-03T23:36:41.314Z,71.29
2019-03-03T23:39:09.182Z,71.42
2019-03-03T23:41:36.735Z,71.26
2019-03-03T23:44:04.348Z,71.26
2019-03-03T23:46:31.946Z,71.34
2019-03-03T23:48:59.632Z,71.16
2019-03-03T23:51:27.171Z,71.16
2019-03-03T23:53:54.785Z,71.63
2019-03-03T23:56:22.370Z,71.81
2019-03-03T23:58:50.011Z,71.86
